Terminal Aerodrome Forecast
Issued by NWS Mt. Holly, NJ

Home | Current Version | Previous Version | Text Only | Print | Product List | Glossary On
Versions: 1 2 3 4 5 6 7 8 9 10 11 12 13
418
FTUS41 KPHI 292327
TAFTTN
TAF
KTTN 292327Z 3000/3024 21008KT P6SM VCSH SCT050 BKN150
      TEMPO 3001/3004 3SM -SHRA BR SCT025 OVC035
     FM300400 18005KT 4SM -SHRA BR BKN025 OVC050
      TEMPO 3006/3010 2SM +SHRA OVC010
     FM301000 25005KT 2SM SHRA BR OVC006
     FM301400 25005KT 2SM -SHRA BR OVC009
     FM301800 22005KT 6SM BR VCSH OVC015=

USA.gov is the U.S. government's official web portal to all federal, state and local government web resources and services.